NEODyS-2

Near Earth Objects - Dynamic Site
NEODyS ∴ Observatories ∴ Site 691 ∴ Obs & residuals
Contact »
691  ▹ 
OBSERVATIONS AND RESIDUALS

691-Steward Observatory, Kitt Peak-Spacewatch

Detections | Residuals | Detections & Residuals

[1-200] [201-400] [401-600] [601-800] [801-1000] [1001-1200] [1201-1400] [1401-1600] [1601-1800] [1801-2000] [2001-2200] [2201-2400] [2401-2600] [2601-2800] [2801-3000] [3001-3200] [3201-3400] [3401-3600] [3601-3800] [3801-4000] [4001-4200] [4201-4400] [4401-4600] [4601-4800] [4801-5000] [5001-5200] [5201-5400] [5401-5600] [5601-5800] [5801-6000] [6001-6200] [6201-6400] [6401-6600] [6601-6800] [6801-7000] [7001-7200] [7201-7400] [7401-7600] [7601-7800] [7801-8000] [8001-8200] [8201-8400] [8401-8600] [8601-8800] [8801-9000] [9001-9200] [9201-9400] [9401-9600] [9601-9800] [9801-10000] [10001-10200] [10201-10400] [10401-10600] [10601-10800] [10801-11000] [11001-11200] [11201-11400] [11401-11600] [11601-11800] [11801-12000] [12001-12200] [12201-12400] [12401-12600] [12601-12800] [12801-13000] [13001-13200] [13201-13400] [13401-13600] [13601-13800] [13801-14000] [14001-14200] [14201-14400] [14401-14600] [14601-14800] [14801-15000] [15001-15200] [15201-15400] [15401-15600] [15601-15800] [15801-16000] [16001-16200] [16201-16400] [16401-16600] [16601-16800] [16801-17000] [17001-17200] [17201-17400] [17401-17600] [17601-17800] [17801-18000] [18001-18200] [18201-18400] [18401-18600] [18601-18800] [18801-19000] [19001-19200] [19201-19400] [19401-19600] [19601-19800] [19801-20000] [20001-20200] [20201-20400] [20401-20600] [20601-20800] [20801-21000] [21001-21200] [21201-21400] [21401-21600] [21601-21800] [21801-22000] [22001-22200] [22201-22400] [22401-22600] [22601-22800] [22801-23000] [23001-23200] [23201-23400] [23401-23600] [23601-23800] [23801-24000] [24001-24200] [24201-24400] [24401-24600] [24601-24800] [24801-25000] [25001-25200] [25201-25400] [25401-25600] [25601-25800] [25801-26000] [26001-26200] [26201-26400] [26401-26600] [26601-26800] [26801-27000] [27001-27200] [27201-27400] [27401-27600] [27601-27800] [27801-28000] [28001-28200] [28201-28400] [28401-28600] [28601-28800] [28801-29000] [29001-29200] [29201-29400] [29401-29600] [29601-29800] [29801-30000] [30001-30200] [30201-30400] [30401-30600] [30601-30800] [30801-31000] [31001-31200] [31201-31400] [31401-31600] [31601-31800] [31801-32000] [32001-32200] [32201-32400] [32401-32600] [32601-32800] [32801-33000] [33001-33200] [33201-33400] [33401-33600] [33601-33800] [33801-34000] [34001-34200] [34201-34400] [34401-34600] [34601-34800] [34801-35000] [35001-35200] [35201-35400] [35401-35600] [35601-35800] [35801-36000] [36001-36200] [36201-36400] [36401-36600] [36601-36800] [36801-37000] [37001-37200] [37201-37400] [37401-37600] [37601-37800] [37801-38000] [38001-38200] [38201-38400] [38401-38600] [38601-38800] [38801-39000] [39001-39200] [39201-39400] [39401-39600] [39601-39800] [39801-40000] [40001-40200] [40201-40400] [40401-40600] [40601-40800] [40801-41000] [41001-41200] [41201-41400] [41401-41600] [41601-41800] [41801-42000] [42001-42200] [42201-42400] [42401-42600] [42601-42800] [42801-43000] [43001-43200] [43201-43400] [43401-43600] [43601-43800] [43801-44000] [44001-44200] [44201-44400] [44401-44600] [44601-44800] [44801-45000] [45001-45200] [45201-45400] [45401-45600] [45601-45800] [45801-46000] [46001-46200] [46201-46400] [46401-46600] [46601-46800] [46801-47000] [47001-47200] [47201-47400] [47401-47600] [47601-47800] [47801-48000] [48001-48200] [48201-48400] [48401-48600] [48601-48800] [48801-49000] [49001-49200] [49201-49400] [49401-49600] [49601-49800] [49801-50000] [50001-50200] [50201-50388]

Designation T Tech N Date Right Ascension Declination Apparent Magnitude Star Catalog Site code χ Used A Used M
yr-mo-day precision hr:min:sec precision rms F bias residual deg min sec precision rms F bias residual mag/col rms residual
2014ME19 O C 2016-12-05.34764 1.000E-05 05:37:12.700 1.500E-01 0.500 F -0.042 -0.093 -21° 03' 42.40" 1.000E-01 0.500 F -0.132 -0.379 20.1 V 0.70 -0.04 o 691 0.81 Yes Yes
2016WG9 O C H 2016-12-05.35103 1.000E-05 05:15:51.490 1.500E-01 0.500 F -0.078 0.836 +09° 16' 52.50" 1.000E-01 0.500 F 0.141 -0.511 o 691 1.98 Yes No
2014ME19 O C 2016-12-05.35753 1.000E-05 05:37:11.650 1.500E-01 0.500 F -0.042 -0.026 -21° 03' 21.10" 1.000E-01 0.500 F -0.132 -0.474 20.3 V 0.70 0.16 o 691 0.99 Yes Yes
2016WH1 O C H 2016-12-05.36309 1.000E-05 07:23:34.080 1.500E-01 0.500 F 0.004 1.296 +26° 42' 34.40" 1.000E-01 0.500 F 0.232 -0.531 o 691 3.02 Yes No
2016YE11 O C 2016-12-05.36739 1.000E-05 07:57:03.240 1.500E-01 0.500 F 0.025 -0.043 +26° 55' 35.00" 1.000E-01 0.500 F 0.281 -1.059 21.1 V 0.70 1.31 o 691 2.22 Yes Yes
2016WH1 O C H 2016-12-05.36932 1.000E-05 07:23:38.840 1.500E-01 0.500 F 0.004 0.018 +26° 42' 47.20" 1.000E-01 0.500 F 0.232 0.198 o 691 0.42 Yes No
2016YE11 O C 2016-12-05.37365 1.000E-05 07:57:03.100 1.500E-01 0.500 F 0.025 0.068 +26° 55' 42.70" 1.000E-01 0.500 F 0.281 -0.004 21.4 V 0.70 1.61 o 691 0.14 Yes Yes
2016WH1 O C H 2016-12-05.37557 1.000E-05 07:23:43.600 1.500E-01 0.500 F 0.004 -1.399 +26° 42' 57.60" 1.000E-01 0.500 F 0.232 -1.420 o 691 3.72 No No
2016YE11 O C 2016-12-05.37995 1.000E-05 07:57:02.920 1.500E-01 0.500 F 0.025 -0.331 +26° 55' 49.30" 1.000E-01 0.500 F 0.281 -0.079 21.0 V 0.70 1.21 o 691 0.71 Yes Yes
2003UX34 O C H 2016-12-05.40626 1.000E-05 08:13:10.700 1.500E-01 0.500 F -0.109 0.876 +29° 13' 14.40" 1.000E-01 0.500 F 0.247 -1.422 o 691 3.34 No No
2003UX34 O C H 2016-12-05.41361 1.000E-05 08:13:11.300 1.500E-01 0.500 F -0.109 0.142 +29° 13' 21.60" 1.000E-01 0.500 F 0.247 -0.052 20.2 V 0.70 0.42 o 691 0.30 Yes Yes
2003UX34 O C H 2016-12-05.42112 1.000E-05 08:13:11.970 1.500E-01 0.500 F -0.109 0.145 +29° 13' 27.50" 1.000E-01 0.500 F 0.247 -0.090 20.0 V 0.70 0.22 o 691 0.34 Yes Yes
2016XD2 O C H 2016-12-05.43056 1.000E-05 08:20:00.920 1.500E-01 0.500 F 0.005 0.527 +18° 05' 58.20" 1.000E-01 0.500 F 0.279 -0.179 20.7 V 0.70 0.14 o 691 1.16 Yes Yes
1996AW1 O C H 2016-12-05.43516 1.000E-05 08:37:32.950 1.500E-01 0.500 F 0.022 0.984 +10° 51' 12.40" 1.000E-01 0.500 F 0.211 -1.257 o 691 3.19 No No
2016XD2 O C H 2016-12-05.43745 1.000E-05 08:20:00.850 1.500E-01 0.500 F 0.005 -0.004 +18° 06' 27.40" 1.000E-01 0.500 F 0.279 -2.717 20.6 V 0.70 0.04 o 691 5.22 No Yes
1996AW1 O C H 2016-12-05.44206 1.000E-05 08:37:31.840 1.500E-01 0.500 F 0.022 -0.076 +10° 51' 20.30" 1.000E-01 0.500 F 0.211 -0.571 o 691 1.15 Yes No
2016XD2 O C H 2016-12-05.44436 1.000E-05 08:20:00.810 1.500E-01 0.500 F 0.005 -0.090 +18° 07' 01.50" 1.000E-01 0.500 F 0.279 -0.419 21.1 V 0.70 0.54 o 691 0.89 Yes Yes
1996AW1 O C H 2016-12-05.44897 1.000E-05 08:37:30.830 1.500E-01 0.500 F 0.022 0.366 +10° 51' 26.40" 1.000E-01 0.500 F 0.211 -1.690 o 691 3.45 No No
2010CG18 O C H 2016-12-05.46807 1.000E-05 09:31:27.930 1.500E-01 0.500 F 0.193 -0.252 +20° 15' 28.50" 1.000E-01 0.500 F 0.297 0.176 20.6 V 0.70 0.75 o 691 0.62 Yes Yes
2010CG18 O C H 2016-12-05.47515 1.000E-05 09:31:29.250 1.500E-01 0.500 F 0.193 0.545 +20° 15' 41.00" 1.000E-01 0.500 F 0.297 -0.082 20.6 V 0.70 0.75 o 691 1.11 Yes Yes
2010CG18 O C H 2016-12-05.48223 1.000E-05 09:31:30.530 1.500E-01 0.500 F 0.193 0.791 +20° 15' 56.40" 1.000E-01 0.500 F 0.297 2.578 19.8 V 0.70 -0.05 o 691 5.36 No Yes
2016VS5 O C H 2016-12-05.49041 1.000E-05 09:30:11.100 1.500E-01 0.500 F 0.083 3.632 -19° 56' 35.30" 1.000E-01 0.500 F -0.148 -0.232 o 691 7.25 No No
2016VS5 O C H 2016-12-05.49636 1.000E-05 09:30:12.150 1.500E-01 0.500 F 0.083 -0.154 -19° 56' 51.80" 1.000E-01 0.500 F -0.148 -1.096 o 691 2.22 Yes No
2016VS5 O C H 2016-12-05.50230 1.000E-05 09:30:13.460 1.500E-01 0.500 F 0.083 -0.245 -19° 57' 06.70" 1.000E-01 0.500 F -0.148 -0.392 o 691 0.93 Yes No
2015YE18 O C 2016-12-05.50686 1.000E-05 10:31:11.310 1.500E-01 0.500 F 0.158 -0.294 -21° 28' 14.40" 1.000E-01 0.500 F -0.054 0.361 19.3 V 0.70 0.03 o 691 0.93 Yes Yes
2015YE18 O C 2016-12-05.51142 1.000E-05 10:31:10.920 1.500E-01 0.500 F 0.158 -0.232 -21° 28' 27.40" 1.000E-01 0.500 F -0.054 0.097 19.4 V 0.70 0.13 o 691 0.50 Yes Yes
2015YE18 O C 2016-12-05.51597 1.000E-05 10:31:10.530 1.500E-01 0.500 F 0.158 -0.178 -21° 28' 40.50" 1.000E-01 0.500 F -0.054 -0.299 19.3 V 0.70 0.03 o 691 0.70 Yes Yes
2016PO8 O C H 2016-12-05.52660 1.000E-05 11:06:45.260 1.500E-01 0.500 F 0.168 0.370 +14° 50' 33.30" 1.000E-01 0.500 F 0.293 -0.105 o 691 0.77 Yes No
2016VV3 O C H 2016-12-05.52889 1.000E-05 11:10:36.240 1.500E-01 0.500 F 0.176 0.346 +09° 59' 03.00" 1.000E-01 0.500 F 0.155 -0.455 o 691 1.15 Yes No
2016PO8 O C H 2016-12-05.53352 1.000E-05 11:06:45.050 1.500E-01 0.500 F 0.168 -0.296 +14° 50' 15.80" 1.000E-01 0.500 F 0.293 -1.166 20.9 V 0.70 0.06 o 691 2.41 Yes Yes
2016VV3 O C H 2016-12-05.53579 1.000E-05 11:10:37.950 1.500E-01 0.500 F 0.176 1.063 +09° 58' 55.70" 1.000E-01 0.500 F 0.155 -1.067 o 691 3.02 Yes No
2016PO8 O C H 2016-12-05.54041 1.000E-05 11:06:44.920 1.500E-01 0.500 F 0.168 0.196 +14° 49' 59.60" 1.000E-01 0.500 F 0.293 -0.992 20.9 V 0.70 0.06 o 691 2.03 Yes Yes
2016VV3 O C H 2016-12-05.54269 1.000E-05 11:10:39.570 1.500E-01 0.500 F 0.176 0.457 +09° 58' 49.20" 1.000E-01 0.500 F 0.155 -0.876 o 691 1.98 Yes No
2016SH45 O C H 2016-12-06.11301 1.000E-05 00:15:31.020 1.500E-01 0.500 F -0.336 0.661 -15° 46' 50.10" 1.000E-01 0.500 F 0.158 -0.236 o 691 1.41 Yes No
2016SH45 O C H 2016-12-06.11529 1.000E-05 00:15:31.470 1.500E-01 0.500 F -0.336 -0.377 -15° 46' 44.60" 1.000E-01 0.500 F 0.158 -0.673 o 691 1.56 Yes No
2016SH45 O C H 2016-12-06.11762 1.000E-05 00:15:32.050 1.500E-01 0.500 F -0.336 0.296 -15° 46' 38.60" 1.000E-01 0.500 F 0.158 -0.741 o 691 1.60 Yes No
2003WR21 O C 2016-12-06.12833 1.000E-05 01:41:16.980 1.500E-01 0.500 F -0.260 -0.377 -03° 15' 06.90" 1.000E-01 0.500 F 0.215 0.002 o 691 0.76 Yes No
2016WP O C 2016-12-06.13061 1.000E-05 01:57:56.860 1.500E-01 0.500 F -0.155 -0.025 +09° 18' 23.50" 1.000E-01 0.500 F 0.277 -0.049 o 691 0.11 Yes No
2005UE O C 2016-12-06.13061 1.000E-05 01:58:43.890 1.500E-01 0.500 F -0.155 -0.087 +08° 55' 12.30" 1.000E-01 0.500 F 0.277 0.147 o 691 0.34 Yes No
2003WR21 O C 2016-12-06.13292 1.000E-05 01:41:16.560 1.500E-01 0.500 F -0.260 -0.136 -03° 15' 02.30" 1.000E-01 0.500 F 0.215 -0.081 o 691 0.32 Yes No
2016WP O C 2016-12-06.13525 1.000E-05 01:57:58.650 1.500E-01 0.500 F -0.155 -0.303 +09° 18' 25.20" 1.000E-01 0.500 F 0.277 -0.019 o 691 0.62 Yes No
2005UE O C 2016-12-06.13525 1.000E-05 01:58:44.440 1.500E-01 0.500 F -0.155 -0.400 +08° 55' 11.20" 1.000E-01 0.500 F 0.277 -0.027 o 691 0.81 Yes No
2003WR21 O C 2016-12-06.13755 1.000E-05 01:41:16.120 1.500E-01 0.500 F -0.260 -0.136 -03° 14' 57.70" 1.000E-01 0.500 F 0.215 -0.206 o 691 0.49 Yes No
2016WP O C 2016-12-06.13984 1.000E-05 01:58:00.390 1.500E-01 0.500 F -0.155 -1.019 +09° 18' 26.80" 1.000E-01 0.500 F 0.277 -0.066 o 691 2.09 Yes No
2005UE O C 2016-12-06.13984 1.000E-05 01:58:45.020 1.500E-01 0.500 F -0.155 -0.172 +08° 55' 10.40" 1.000E-01 0.500 F 0.277 0.091 o 691 0.39 Yes No
2016LX48 O C 2016-12-06.14309 1.000E-05 02:01:19.610 1.500E-01 0.500 F -0.179 -0.157 +25° 27' 42.80" 1.000E-01 0.500 F 0.243 -0.086 o 691 0.36 Yes No
2016XM23 O C H 2016-12-06.14669 1.000E-05 02:08:08.120 1.500E-01 0.500 F -0.324 0.578 +14° 09' 05.20" 1.000E-01 0.500 F 0.163 -0.088 o 691 1.21 Yes No
2016LX48 O C 2016-12-06.15562 1.000E-05 02:01:20.280 1.500E-01 0.500 F -0.179 -0.166 +25° 27' 38.70" 1.000E-01 0.500 F 0.243 0.074 o 691 0.36 Yes No
2016XM23 O C H 2016-12-06.15923 1.000E-05 02:08:07.020 1.500E-01 0.500 F -0.324 0.642 +14° 09' 50.90" 1.000E-01 0.500 F 0.163 -1.837 o 691 3.76 No No
2016LX48 O C 2016-12-06.16807 1.000E-05 02:01:20.940 1.500E-01 0.500 F -0.179 -0.242 +25° 27' 34.40" 1.000E-01 0.500 F 0.243 0.029 o 691 0.49 Yes No
2016XM23 O C H 2016-12-06.17160 1.000E-05 02:08:06.050 1.500E-01 0.500 F -0.324 2.389 +14° 10' 36.90" 1.000E-01 0.500 F 0.163 -2.577 o 691 6.79 No No
2012UK171 O C 2016-12-06.18435 1.000E-05 02:46:18.360 1.500E-01 0.500 F -0.257 -0.677 +15° 41' 20.20" 1.000E-01 0.500 F 0.322 -0.094 o 691 1.37 Yes No
2012UK171 O C 2016-12-06.19127 1.000E-05 02:46:15.540 1.500E-01 0.500 F -0.257 -0.752 +15° 41' 02.30" 1.000E-01 0.500 F 0.322 -0.161 o 691 1.54 Yes No
2012UK171 O C 2016-12-06.19812 1.000E-05 02:46:12.800 1.500E-01 0.500 F -0.257 -0.072 +15° 40' 44.80" 1.000E-01 0.500 F 0.322 0.038 o 691 0.16 Yes No
2006WO3 O C 2016-12-06.22897 1.000E-05 03:52:18.550 1.500E-01 0.500 F -0.163 -0.161 +21° 01' 16.00" 1.000E-01 0.500 F 0.169 -0.106 o 691 0.39 Yes No
2006WO3 O C 2016-12-06.23680 1.000E-05 03:52:15.180 1.500E-01 0.500 F -0.163 0.084 +21° 00' 21.70" 1.000E-01 0.500 F 0.169 -0.035 o 691 0.18 Yes No
2006WO3 O C 2016-12-06.24466 1.000E-05 03:52:11.770 1.500E-01 0.500 F -0.163 -0.060 +20° 59' 26.90" 1.000E-01 0.500 F 0.169 -0.230 o 691 0.48 Yes No
1996AW1 O C 2016-12-06.37130 1.000E-05 08:35:18.490 1.500E-01 0.500 F 0.019 -0.136 +11° 07' 33.90" 1.000E-01 0.500 F 0.155 0.141 o 691 0.39 Yes No
1996AW1 O C 2016-12-06.37607 1.000E-05 08:35:17.740 1.500E-01 0.500 F 0.019 -0.455 +11° 07' 38.90" 1.000E-01 0.500 F 0.155 0.065 o 691 0.92 Yes No
1996AW1 O C 2016-12-06.38085 1.000E-05 08:35:17.030 1.500E-01 0.500 F 0.019 -0.152 +11° 07' 43.90" 1.000E-01 0.500 F 0.155 -0.020 o 691 0.30 Yes No
2010CG18 O C 2016-12-06.41735 1.000E-05 09:34:28.780 1.500E-01 0.500 F 0.132 -0.038 +20° 43' 55.70" 1.000E-01 0.500 F 0.329 -0.117 o 691 0.25 Yes No
2010CG18 O C 2016-12-06.42190 1.000E-05 09:34:29.620 1.500E-01 0.500 F 0.132 0.411 +20° 44' 03.90" 1.000E-01 0.500 F 0.329 -0.284 o 691 1.00 Yes No
2010CG18 O C 2016-12-06.42646 1.000E-05 09:34:30.390 1.500E-01 0.500 F 0.132 -0.136 +20° 44' 12.00" 1.000E-01 0.500 F 0.329 -0.562 o 691 1.16 Yes No
2007XJ20 O C 2016-12-06.43094 1.000E-05 10:36:04.000 1.500E-01 0.500 F 0.127 -0.180 +25° 39' 32.30" 1.000E-01 0.500 F 0.252 -0.011 o 691 0.38 Yes No
2007XJ20 O C 2016-12-06.43551 1.000E-05 10:36:05.390 1.500E-01 0.500 F 0.127 0.174 +25° 39' 30.90" 1.000E-01 0.500 F 0.252 -0.040 o 691 0.38 Yes No
2007XJ20 O C 2016-12-06.44012 1.000E-05 10:36:06.760 1.500E-01 0.500 F 0.127 0.101 +25° 39' 29.50" 1.000E-01 0.500 F 0.252 -0.054 o 691 0.24 Yes No
2010XX72 O C 2016-12-09.08067 1.000E-05 02:32:35.530 1.500E-01 0.500 F -0.126 -0.284 +27° 22' 18.50" 1.000E-01 0.500 F 0.225 -0.363 20.3 V 0.70 0.09 o 691 0.94 Yes Yes
2016XA2 O C t 2016-12-09.08363 1.000E-05 02:37:08.980 1.500E-01 0.500 F -0.208 0.568 +23° 33' 54.90" 1.000E-01 0.500 F 0.275 -0.867 20.0 V 0.70 0.21 o 691 2.12 Yes Yes
2016WJ1 O C t 2016-12-09.08811 1.000E-05 02:33:11.820 1.500E-01 0.500 F -0.173 0.037 +09° 46' 46.80" 1.000E-01 0.500 F 0.219 -0.702 17.2 V 0.70 -0.22 o 691 1.41 Yes Yes
2010XX72 O C 2016-12-09.09608 1.000E-05 02:32:33.110 1.500E-01 0.500 F -0.126 -0.314 +27° 21' 42.80" 1.000E-01 0.500 F 0.225 -0.366 20.3 V 0.70 0.09 o 691 0.99 Yes Yes
2016XA2 O C t 2016-12-09.09910 1.000E-05 02:37:00.360 1.500E-01 0.500 F -0.208 0.304 +23° 33' 04.40" 1.000E-01 0.500 F 0.275 -0.771 19.8 V 0.70 0.01 o 691 1.69 Yes Yes
2016WJ1 O C t 2016-12-09.10361 1.000E-05 02:32:57.290 1.500E-01 0.500 F -0.173 0.228 +09° 45' 55.60" 1.000E-01 0.500 F 0.219 -0.517 17.0 V 0.70 -0.42 o 691 1.13 Yes Yes
2010XX72 O C 2016-12-09.11159 1.000E-05 02:32:30.660 1.500E-01 0.500 F -0.126 -0.362 +27° 21' 06.60" 1.000E-01 0.500 F 0.225 -0.525 20.1 V 0.70 -0.11 o 691 1.30 Yes Yes
2016XA2 O C t 2016-12-09.11461 1.000E-05 02:36:51.700 1.500E-01 0.500 F -0.208 0.113 +23° 32' 13.50" 1.000E-01 0.500 F 0.275 -0.741 20.3 V 0.70 0.51 o 691 1.53 Yes Yes
2016WJ1 O C t 2016-12-09.11920 1.000E-05 02:32:42.610 1.500E-01 0.500 F -0.173 0.418 +09° 45' 03.80" 1.000E-01 0.500 F 0.219 -0.357 17.0 V 0.70 -0.42 o 691 1.10 Yes Yes
2006WO3 O C t 2016-12-09.13006 1.000E-05 03:34:28.800 1.500E-01 0.500 F -0.325 0.548 +15° 44' 00.50" 1.000E-01 0.500 F 0.158 -1.265 19.1 V 0.70 0.05 o 691 2.77 Yes Yes
2006WO3 O C t 2016-12-09.13194 1.000E-05 03:34:28.160 1.500E-01 0.500 F -0.325 0.618 +15° 43' 49.70" 1.000E-01 0.500 F 0.158 -0.635 19.2 V 0.70 0.15 o 691 1.78 Yes Yes
2006WO3 O C t 2016-12-09.13379 1.000E-05 03:34:27.540 1.500E-01 0.500 F -0.325 0.832 +15° 43' 38.40" 1.000E-01 0.500 F 0.158 -0.688 19.2 V 0.70 0.15 o 691 2.17 Yes Yes
2012WK4 O C 2016-12-09.16166 1.000E-05 04:20:09.290 1.500E-01 0.500 F -0.129 -0.219 +04° 30' 40.70" 1.000E-01 0.500 F 0.321 -1.151 20.4 V 0.70 -0.13 o 691 2.36 Yes Yes
2002JM97 O C 2016-12-09.16623 1.000E-05 04:21:25.100 1.500E-01 0.500 F -0.333 -0.321 +23° 57' 26.30" 1.000E-01 0.500 F 0.297 0.144 20.4 V 0.70 -0.35 o 691 0.71 Yes Yes
1997XR2 O C 2016-12-09.16996 1.000E-05 05:05:13.620 1.500E-01 0.500 F -0.178 -0.147 +13° 21' 31.20" 1.000E-01 0.500 F 0.206 -0.221 16.8 V 0.70 0.36 o 691 0.53 Yes Yes
2016WG9 O C H 2016-12-09.17368 1.000E-05 05:08:19.470 1.500E-01 0.500 F -0.069 0.475 +10° 15' 22.80" 1.000E-01 0.500 F 0.134 -0.856 21.3 V 0.70 0.11 o 691 1.99 Yes Yes
2012WK4 O C 2016-12-09.18397 1.000E-05 04:20:06.480 1.500E-01 0.500 F -0.129 -0.388 +04° 30' 58.40" 1.000E-01 0.500 F 0.321 0.059 20.8 V 0.70 0.27 o 691 0.79 Yes Yes
2002JM97 O C 2016-12-09.18859 1.000E-05 04:21:23.560 1.500E-01 0.500 F -0.333 0.347 +23° 57' 26.30" 1.000E-01 0.500 F 0.297 -0.006 20.1 V 0.70 -0.65 o 691 0.69 Yes Yes
1997XR2 O C 2016-12-09.19231 1.000E-05 05:05:09.110 1.500E-01 0.500 F -0.178 -0.358 +13° 20' 15.10" 1.000E-01 0.500 F 0.206 -0.238 16.6 V 0.70 0.15 o 691 0.86 Yes Yes
2016WG9 O C H 2016-12-09.19603 1.000E-05 05:08:16.900 1.500E-01 0.500 F -0.069 0.638 +10° 15' 42.10" 1.000E-01 0.500 F 0.134 -1.616 24.7 V 0.70 3.51 o 691 3.43 No No
2012WK4 O C 2016-12-09.20642 1.000E-05 04:20:03.640 1.500E-01 0.500 F -0.129 -0.544 +04° 31' 14.90" 1.000E-01 0.500 F 0.321 -0.007 20.4 V 0.70 -0.13 o 691 1.10 Yes Yes
2002JM97 O C 2016-12-09.21112 1.000E-05 04:21:21.920 1.500E-01 0.500 F -0.333 -0.159 +23° 57' 26.50" 1.000E-01 0.500 F 0.297 0.070 20.3 V 0.70 -0.46 o 691 0.35 Yes Yes
1997XR2 O C 2016-12-09.21485 1.000E-05 05:05:04.520 1.500E-01 0.500 F -0.178 -0.273 +13° 18' 58.10" 1.000E-01 0.500 F 0.206 -0.367 17.6 V 0.70 1.15 o 691 0.92 Yes Yes
2016WG9 O C H 2016-12-09.21856 1.000E-05 05:08:14.300 1.500E-01 0.500 F -0.069 0.834 +10° 16' 03.00" 1.000E-01 0.500 F 0.134 -0.885 21.5 V 0.70 0.31 o 691 2.46 Yes Yes
2003UX34 O C 2016-12-09.24777 1.000E-05 08:19:58.180 1.500E-01 0.500 F -0.053 -0.040 +30° 11' 02.20" 1.000E-01 0.500 F 0.347 0.044 19.3 V 0.70 -0.08 o 691 0.12 Yes Yes
2016XW17 O C 2016-12-09.25011 1.000E-05 08:01:11.940 1.500E-01 0.500 F -0.029 -0.394 +19° 25' 47.40" 1.000E-01 0.500 F 0.258 -0.526 20.5 V 0.70 0.17 o 691 1.33 Yes Yes
1996AW1 O C H 2016-12-09.25245 1.000E-05 08:28:05.280 1.500E-01 0.500 F 0.021 0.118 +11° 58' 44.80" 1.000E-01 0.500 F 0.173 -0.126 20.7 V 0.70 0.76 o 691 0.35 Yes Yes
2003UX34 O C 2016-12-09.25480 1.000E-05 08:19:58.950 1.500E-01 0.500 F -0.053 -0.019 +30° 11' 10.00" 1.000E-01 0.500 F 0.347 -0.029 19.4 V 0.70 0.02 o 691 0.07 Yes Yes
2016XW17 O C 2016-12-09.25714 1.000E-05 08:01:12.860 1.500E-01 0.500 F -0.029 -0.412 +19° 25' 34.70" 1.000E-01 0.500 F 0.258 -0.112 20.6 V 0.70 0.27 o 691 0.87 Yes Yes
1996AW1 O C H 2016-12-09.25947 1.000E-05 08:28:04.130 1.500E-01 0.500 F 0.021 -0.456 +11° 58' 52.80" 1.000E-01 0.500 F 0.173 0.141 20.5 V 0.70 0.56 o 691 0.96 Yes Yes
2003UX34 O C 2016-12-09.26182 1.000E-05 08:19:59.710 1.500E-01 0.500 F -0.053 -0.071 +30° 11' 18.00" 1.000E-01 0.500 F 0.347 0.115 19.5 V 0.70 0.12 o 691 0.27 Yes Yes
2016XW17 O C 2016-12-09.26417 1.000E-05 08:01:13.780 1.500E-01 0.500 F -0.029 -0.402 +19° 25' 21.60" 1.000E-01 0.500 F 0.258 -0.085 20.7 V 0.70 0.37 o 691 0.84 Yes Yes
2010CG18 O C 2016-12-09.28677 1.000E-05 09:43:21.670 1.500E-01 0.500 F 0.123 -0.141 +22° 11' 29.50" 1.000E-01 0.500 F 0.267 -0.027 19.7 V 0.70 -0.09 o 691 0.29 Yes Yes
2010CG18 O C 2016-12-09.29642 1.000E-05 09:43:23.340 1.500E-01 0.500 F 0.123 -0.842 +22° 11' 48.50" 1.000E-01 0.500 F 0.267 0.420 19.7 V 0.70 -0.09 o 691 1.89 Yes Yes
2010CG18 O C 2016-12-09.30607 1.000E-05 09:43:25.080 1.500E-01 0.500 F 0.123 -0.467 +22° 12' 06.30" 1.000E-01 0.500 F 0.267 -0.323 19.7 V 0.70 -0.09 o 691 1.14 Yes Yes
2016XO23 O C H 2016-12-09.36315 1.000E-05 09:00:01.630 1.500E-01 0.500 F 0.063 0.358 +08° 34' 22.00" 1.000E-01 0.500 F 0.101 -0.294 o 691 0.94 Yes No
2016XO23 O C H 2016-12-09.36781 1.000E-05 09:00:02.960 1.500E-01 0.500 F 0.063 0.929 +08° 34' 10.10" 1.000E-01 0.500 F 0.101 -0.761 o 691 2.43 Yes No
2016XO23 O C H 2016-12-09.37248 1.000E-05 09:00:04.210 1.500E-01 0.500 F 0.063 0.278 +08° 33' 59.20" 1.000E-01 0.500 F 0.101 -0.199 o 691 0.69 Yes No
2016VS5 O C 2016-12-09.39461 1.000E-05 09:45:26.880 1.500E-01 0.500 F 0.227 0.025 -22° 48' 15.40" 1.000E-01 0.500 F -0.178 -0.838 20.6 V 0.70 -0.23 o 691 1.68 Yes Yes
2016VS5 O C 2016-12-09.40111 1.000E-05 09:45:28.360 1.500E-01 0.500 F 0.227 -0.765 -22° 48' 31.60" 1.000E-01 0.500 F -0.178 0.285 20.2 V 0.70 -0.63 o 691 1.64 Yes Yes
2016VS5 O C 2016-12-09.40762 1.000E-05 09:45:29.880 1.500E-01 0.500 F 0.227 -1.024 -22° 48' 48.40" 1.000E-01 0.500 F -0.178 0.826 20.3 V 0.70 -0.53 o 691 2.64 Yes Yes
2015YE18 O C 2016-12-09.41281 1.000E-05 10:25:30.180 1.500E-01 0.500 F 0.383 -0.531 -24° 27' 19.10" 1.000E-01 0.500 F 0.097 0.031 19.6 V 0.70 0.35 o 691 1.07 Yes Yes
2015YE18 O C 2016-12-09.41511 1.000E-05 10:25:29.990 1.500E-01 0.500 F 0.383 -0.036 -24° 27' 25.30" 1.000E-01 0.500 F 0.097 0.115 19.4 V 0.70 0.15 o 691 0.24 Yes Yes
2015YE18 O C 2016-12-09.41739 1.000E-05 10:25:29.740 1.500E-01 0.500 F 0.383 -0.386 -24° 27' 31.50" 1.000E-01 0.500 F 0.097 0.144 19.5 V 0.70 0.25 o 691 0.83 Yes Yes
2010CD19 O C 2016-12-09.45124 1.000E-05 12:30:03.290 1.500E-01 0.500 F 0.057 -0.189 -04° 05' 33.50" 1.000E-01 0.500 F 0.215 0.029 20.5 V 0.70 0.40 o 691 0.39 Yes Yes
2011CQ4 O C 2016-12-09.45353 1.000E-05 13:13:19.950 1.500E-01 0.500 F 0.223 -2.682 +12° 00' 05.90" 1.000E-01 0.500 F 0.173 0.423 20.5 V 0.70 0.36 o 691 5.26 No Yes
2010CD19 O C 2016-12-09.45590 1.000E-05 12:30:03.750 1.500E-01 0.500 F 0.057 -0.526 -04° 05' 44.30" 1.000E-01 0.500 F 0.215 -0.033 20.2 V 0.70 0.10 o 691 1.06 Yes Yes
2011CQ4 O C 2016-12-09.45820 1.000E-05 13:13:22.010 1.500E-01 0.500 F 0.223 -0.119 +12° 00' 00.90" 1.000E-01 0.500 F 0.173 0.397 20.0 V 0.70 -0.14 o 691 0.85 Yes Yes
2010CD19 O C 2016-12-09.46057 1.000E-05 12:30:04.270 1.500E-01 0.500 F 0.057 0.026 -04° 05' 55.10" 1.000E-01 0.500 F 0.215 -0.073 20.2 V 0.70 0.10 o 691 0.16 Yes Yes
2011CQ4 O C 2016-12-09.46287 1.000E-05 13:13:23.880 1.500E-01 0.500 F 0.223 -0.335 +11° 59' 56.00" 1.000E-01 0.500 F 0.173 0.472 20.3 V 0.70 0.16 o 691 1.20 Yes Yes
2017YH O C 2016-12-09.46739 1.000E-05 11:49:46.200 1.500E-01 0.500 F 0.335 -0.175 -25° 04' 04.40" 1.000E-01 0.500 F 0.148 -0.218 19.6 V 0.70 0.24 o 691 0.57 Yes Yes
2017YH O C 2016-12-09.46967 1.000E-05 11:49:46.630 1.500E-01 0.500 F 0.335 -0.421 -25° 04' 05.40" 1.000E-01 0.500 F 0.148 0.032 19.5 V 0.70 0.14 o 691 0.86 Yes Yes
2017YH O C 2016-12-09.47204 1.000E-05 11:49:47.060 1.500E-01 0.500 F 0.335 -0.905 -25° 04' 06.70" 1.000E-01 0.500 F 0.148 0.030 19.6 V 0.70 0.24 o 691 1.85 Yes Yes
2016VR5 O C 2016-12-10.35247 1.000E-05 09:05:08.620 1.500E-01 0.500 F 0.043 -0.275 -01° 58' 26.00" 1.000E-01 0.500 F 0.041 0.067 20.5 V 0.70 -0.71 o 691 0.57 Yes Yes
2016VR5 O C 2016-12-10.35949 1.000E-05 09:05:08.220 1.500E-01 0.500 F 0.043 -0.288 -01° 58' 40.80" 1.000E-01 0.500 F 0.041 -0.234 20.6 V 0.70 -0.61 o 691 0.75 Yes Yes
2016VR5 O C 2016-12-10.36649 1.000E-05 09:05:07.810 1.500E-01 0.500 F 0.043 -0.456 -01° 58' 55.10" 1.000E-01 0.500 F 0.041 -0.077 20.4 V 0.70 -0.81 o 691 0.93 Yes Yes
2016PR8 O C 2016-12-10.43053 1.000E-05 11:15:30.170 1.500E-01 0.500 F 0.261 -0.167 -13° 49' 40.60" 1.000E-01 0.500 F 0.030 -0.622 19.2 V 0.70 1.15 o 691 1.32 Yes Yes
2010NT1 O C 2016-12-10.43345 1.000E-05 08:54:46.780 1.500E-01 0.500 F 0.075 -0.212 +20° 16' 35.60" 1.000E-01 0.500 F 0.230 -0.057 20.7 V 0.70 -0.48 o 691 0.44 Yes Yes
2016PR8 O C 2016-12-10.44087 1.000E-05 11:15:29.770 1.500E-01 0.500 F 0.261 -0.253 -13° 48' 10.60" 1.000E-01 0.500 F 0.030 -0.181 19.3 V 0.70 1.25 o 691 0.63 Yes Yes
2010NT1 O C 2016-12-10.44383 1.000E-05 08:54:46.110 1.500E-01 0.500 F 0.075 -0.294 +20° 16' 16.90" 1.000E-01 0.500 F 0.230 -0.289 20.6 V 0.70 -0.58 o 691 0.83 Yes Yes
2016PR8 O C 2016-12-10.45120 1.000E-05 11:15:29.370 1.500E-01 0.500 F 0.261 -0.223 -13° 46' 41.50" 1.000E-01 0.500 F 0.030 -0.568 19.0 V 0.70 0.95 o 691 1.25 Yes Yes
2010NT1 O C 2016-12-10.45425 1.000E-05 08:54:45.430 1.500E-01 0.500 F 0.075 -0.469 +20° 15' 58.30" 1.000E-01 0.500 F 0.230 -0.332 20.6 V 0.70 -0.58 o 691 1.16 Yes Yes
2010CG18 O C 2016-12-10.45964 1.000E-05 09:46:51.600 1.500E-01 0.500 F 0.086 -0.411 +22° 48' 06.50" 1.000E-01 0.500 F 0.237 -0.002 o 691 0.83 Yes No
2010CD19 O C 2016-12-10.46268 1.000E-05 12:31:49.080 1.500E-01 0.500 F 0.147 -0.675 -04° 44' 11.80" 1.000E-01 0.500 F 0.215 0.089 o 691 1.37 Yes No
2010CG18 O C 2016-12-10.46985 1.000E-05 09:46:53.330 1.500E-01 0.500 F 0.086 0.088 +22° 48' 25.90" 1.000E-01 0.500 F 0.237 0.106 o 691 0.28 Yes No
2010CD19 O C 2016-12-10.47291 1.000E-05 12:31:50.170 1.500E-01 0.500 F 0.147 0.036 -04° 44' 35.00" 1.000E-01 0.500 F 0.215 0.277 o 691 0.56 Yes No
2010CG18 O C 2016-12-10.48015 1.000E-05 09:46:55.050 1.500E-01 0.500 F 0.086 0.266 +22° 48' 45.30" 1.000E-01 0.500 F 0.237 0.088 o 691 0.56 Yes No
2010CD19 O C 2016-12-10.48326 1.000E-05 12:31:51.200 1.500E-01 0.500 F 0.147 -0.305 -04° 44' 58.90" 1.000E-01 0.500 F 0.215 0.035 o 691 0.62 Yes No
2017YH O C 2016-12-10.48871 1.000E-05 11:53:16.250 1.500E-01 0.500 F 0.297 -0.111 -25° 12' 53.90" 1.000E-01 0.500 F 0.295 -0.031 19.7 V 0.70 0.36 o 691 0.24 Yes Yes
2016LE9 O C 2016-12-10.49579 1.000E-05 12:36:22.840 1.500E-01 0.500 F 0.246 -0.316 -17° 52' 54.80" 1.000E-01 0.500 F 0.066 0.017 o 691 0.63 Yes No
2017YH O C 2016-12-10.49809 1.000E-05 11:53:18.140 1.500E-01 0.500 F 0.297 -0.262 -25° 12' 59.10" 1.000E-01 0.500 F 0.295 -0.136 19.5 V 0.70 0.16 o 691 0.60 Yes Yes
2016LE9 O C 2016-12-10.50512 1.000E-05 12:36:23.480 1.500E-01 0.500 F 0.246 -0.536 -17° 53' 00.80" 1.000E-01 0.500 F 0.066 -0.090 o 691 1.09 Yes No
2017YH O C 2016-12-10.50742 1.000E-05 11:53:20.180 1.500E-01 0.500 F 0.297 1.783 -25° 13' 05.30" 1.000E-01 0.500 F 0.295 -1.289 19.1 V 0.70 -0.24 o 691 4.32 No Yes
2016LE9 O C 2016-12-10.51443 1.000E-05 12:36:24.170 1.500E-01 0.500 F 0.246 -0.009 -17° 53' 06.70" 1.000E-01 0.500 F 0.066 -0.116 o 691 0.23 Yes No
2016XT1 O C H 2016-12-11.44142 1.000E-05 05:31:34.680 1.500E-01 0.500 F -0.228 -0.314 +13° 04' 54.70" 1.000E-01 0.500 F 0.157 -0.050 o 691 0.64 Yes No
2016XT1 O C H 2016-12-11.44609 1.000E-05 05:31:34.340 1.500E-01 0.500 F -0.228 0.122 +13° 04' 57.00" 1.000E-01 0.500 F 0.157 0.149 20.1 R 0.70 0.47 o 691 0.39 Yes Yes
2016XT1 O C H 2016-12-11.45077 1.000E-05 05:31:33.950 1.500E-01 0.500 F -0.228 -0.169 +13° 04' 58.70" 1.000E-01 0.500 F 0.157 -0.254 20.3 R 0.70 0.67 o 691 0.62 Yes Yes
2016VV3 O C H 2016-12-11.49202 1.000E-05 11:34:09.000 1.500E-01 0.500 F 0.151 -0.277 +08° 24' 13.10" 1.000E-01 0.500 F 0.136 0.009 20.9 R 0.70 0.42 o 691 0.56 Yes Yes
2016VV3 O C H 2016-12-11.49882 1.000E-05 11:34:10.540 1.500E-01 0.500 F 0.151 0.100 +08° 24' 06.60" 1.000E-01 0.500 F 0.136 -0.190 20.6 R 0.70 0.12 o 691 0.43 Yes Yes
2010CD19 O C H 2016-12-11.53481 1.000E-05 12:33:39.650 1.500E-01 0.500 F 0.277 0.365 -05° 24' 49.40" 1.000E-01 0.500 F 0.147 0.166 20.2 R 0.70 0.49 o 691 0.81 Yes Yes
2010CD19 O C H 2016-12-11.54185 1.000E-05 12:33:40.340 1.500E-01 0.500 F 0.277 0.207 -05° 25' 05.50" 1.000E-01 0.500 F 0.147 0.018 o 691 0.42 Yes No
2003WR21 O C H 2016-12-18.28222 1.000E-05 01:29:22.430 1.500E-01 0.500 F -0.265 0.074 +00° 33' 40.00" 1.000E-01 0.500 F 0.234 -0.178 19.5 R 0.70 -0.09 o 691 0.39 Yes Yes
2003WR21 O C H 2016-12-18.28902 1.000E-05 01:29:22.180 1.500E-01 0.500 F -0.265 -0.080 +00° 33' 48.50" 1.000E-01 0.500 F 0.234 0.074 19.7 R 0.70 0.11 o 691 0.22 Yes Yes
2003WR21 O C H 2016-12-18.29580 1.000E-05 01:29:21.950 1.500E-01 0.500 F -0.265 0.027 +00° 33' 56.90" 1.000E-01 0.500 F 0.234 0.250 19.7 R 0.70 0.11 o 691 0.50 Yes Yes
2016PR8 O C H 2016-12-18.47945 1.000E-05 11:12:19.750 1.500E-01 0.500 F 0.137 0.498 +03° 40' 58.50" 1.000E-01 0.500 F 0.107 0.032 o 691 1.01 Yes No
2003SW222 O C 2016-12-18.48178 1.000E-05 12:45:02.850 1.500E-01 0.612 F 0.224 0.299 -18° 51' 40.50" 1.000E-01 0.612 F -0.075 0.573 20.3 V 0.70 -0.03 o 691 1.06 Yes Yes
2016LE9 O C 2016-12-18.48178 1.000E-05 12:45:04.440 1.500E-01 0.612 F 0.224 -0.239 -19° 10' 33.90" 1.000E-01 0.612 F -0.075 0.101 21.0 V 0.70 0.06 o 691 0.42 Yes Yes
2016PR8 O C H 2016-12-18.48659 1.000E-05 11:12:19.430 1.500E-01 0.500 F 0.137 0.228 +03° 41' 47.80" 1.000E-01 0.500 F 0.107 0.066 o 691 0.48 Yes No
2016LE9 O C 2016-12-18.48891 1.000E-05 12:45:04.900 1.500E-01 0.612 F 0.224 0.552 -19° 10' 38.00" 1.000E-01 0.612 F -0.075 -0.082 20.9 V 0.70 -0.04 o 691 0.91 Yes Yes
2003SW222 O C 2016-12-18.48891 1.000E-05 12:45:03.700 1.500E-01 0.612 F 0.224 -0.434 -18° 51' 51.40" 1.000E-01 0.612 F -0.075 -0.012 20.3 V 0.70 -0.03 o 691 0.71 Yes Yes
2016PR8 O C H 2016-12-18.49371 1.000E-05 11:12:19.120 1.500E-01 0.500 F 0.137 0.120 +03° 42' 37.20" 1.000E-01 0.500 F 0.107 0.354 o 691 0.76 Yes No
2003SW222 O C 2016-12-18.49602 1.000E-05 12:45:04.590 1.500E-01 0.612 F 0.224 -0.557 -18° 52' 01.20" 1.000E-01 0.612 F -0.075 0.470 20.2 V 0.70 -0.13 o 691 1.19 Yes Yes
2016LE9 O C 2016-12-18.49602 1.000E-05 12:45:05.270 1.500E-01 0.612 F 0.224 0.092 -19° 10' 41.90" 1.000E-01 0.612 F -0.075 -0.079 20.5 V 0.70 -0.44 o 691 0.20 Yes Yes
2003SW222 O C 2016-12-18.50512 1.000E-05 12:45:05.740 1.500E-01 0.612 F 0.224 -0.549 -18° 52' 14.70" 1.000E-01 0.612 F -0.075 0.126 20.1 V 0.70 -0.23 o 691 0.92 Yes Yes
2016LE9 O C 2016-12-18.50512 1.000E-05 12:45:05.740 1.500E-01 0.612 F 0.224 -0.537 -19° 10' 46.70" 1.000E-01 0.612 F -0.075 0.111 20.7 V 0.70 -0.24 o 691 0.90 Yes Yes
2003SW222 O C 2016-12-18.51203 1.000E-05 12:45:06.650 1.500E-01 0.612 F 0.224 -0.015 -18° 52' 24.50" 1.000E-01 0.612 F -0.075 0.312 20.2 V 0.70 -0.13 o 691 0.51 Yes Yes
2016LE9 O C 2016-12-18.51203 1.000E-05 12:45:06.170 1.500E-01 0.612 F 0.224 0.029 -19° 10' 50.90" 1.000E-01 0.612 F -0.075 -0.303 20.6 V 0.70 -0.34 o 691 0.50 Yes Yes
2003SW222 O C 2016-12-18.51894 1.000E-05 12:45:07.520 1.500E-01 0.612 F 0.224 -0.043 -18° 52' 34.20" 1.000E-01 0.612 F -0.075 0.596 20.6 V 0.70 0.27 o 691 0.98 Yes Yes
2016LE9 O C 2016-12-18.51894 1.000E-05 12:45:06.550 1.500E-01 0.612 F 0.224 -0.107 -19° 10' 54.50" 1.000E-01 0.612 F -0.075 -0.121 20.6 V 0.70 -0.34 o 691 0.26 Yes Yes
2016WO1 O C H 2016-12-20.14982 1.000E-05 01:45:45.280 1.500E-01 0.612 F -0.223 -0.352 +21° 53' 23.60" 1.000E-01 0.612 F 0.401 0.017 19.8 R 0.70 0.15 o 691 0.58 Yes Yes
2003WR21 O C H 2016-12-20.15228 1.000E-05 01:28:31.840 1.500E-01 0.612 F -0.163 -0.030 +01° 11' 48.90" 1.000E-01 0.612 F 0.264 0.157 19.5 R 0.70 -0.14 o 691 0.26 Yes Yes
2016WO1 O C H 2016-12-20.15654 1.000E-05 01:45:44.140 1.500E-01 0.612 F -0.223 -0.255 +21° 53' 32.40" 1.000E-01 0.612 F 0.401 -0.317 19.6 R 0.70 -0.05 o 691 0.67 Yes Yes
2003WR21 O C H 2016-12-20.15897 1.000E-05 01:28:31.660 1.500E-01 0.612 F -0.163 0.319 +01° 11' 57.10" 1.000E-01 0.612 F 0.264 0.110 19.8 R 0.70 0.16 o 691 0.55 Yes Yes
2016WO1 O C H 2016-12-20.16315 1.000E-05 01:45:43.020 1.500E-01 0.612 F -0.223 -0.147 +21° 53' 41.90" 1.000E-01 0.612 F 0.401 0.210 19.8 R 0.70 0.15 o 691 0.42 Yes Yes
2003WR21 O C H 2016-12-20.16560 1.000E-05 01:28:31.380 1.500E-01 0.612 F -0.163 -0.868 +01° 12' 05.50" 1.000E-01 0.612 F 0.264 0.337 19.9 R 0.70 0.26 o 691 1.52 Yes Yes
2007CA19 O C H 2016-12-20.17661 1.000E-05 23:53:14.080 1.500E-01 0.500 F -0.212 0.854 -09° 24' 38.20" 1.000E-01 0.500 F 0.046 -0.248 21.0 R 0.70 0.67 o 691 1.79 Yes Yes
2016WO1 O C H 2016-12-20.17964 1.000E-05 01:45:40.210 1.500E-01 0.612 F -0.223 -0.131 +21° 54' 04.00" 1.000E-01 0.612 F 0.401 -0.025 19.7 R 0.70 0.05 o 691 0.22 Yes Yes
2007CA19 O C H 2016-12-20.18369 1.000E-05 23:53:15.180 1.500E-01 0.500 F -0.212 0.095 -09° 24' 29.90" 1.000E-01 0.500 F 0.046 0.233 20.6 R 0.70 0.27 o 691 0.51 Yes Yes
2016WO1 O C H 2016-12-20.18668 1.000E-05 01:45:38.990 1.500E-01 0.612 F -0.223 -0.426 +21° 54' 13.60" 1.000E-01 0.612 F 0.401 0.060 19.8 R 0.70 0.15 o 691 0.71 Yes Yes
2016WO1 O C H 2016-12-20.19370 1.000E-05 01:45:37.820 1.500E-01 0.612 F -0.223 -0.085 +21° 54' 22.80" 1.000E-01 0.612 F 0.401 -0.215 19.6 R 0.70 -0.05 o 691 0.38 Yes Yes
2003WR21 O C H 2016-12-20.20926 1.000E-05 01:28:30.150 1.500E-01 0.612 F -0.163 0.214 +01° 12' 58.80" 1.000E-01 0.612 F 0.264 -0.178 19.9 R 0.70 0.26 o 691 0.45 Yes Yes
2007WV4 O C H 2016-12-20.21650 1.000E-05 02:48:27.010 1.500E-01 0.500 F -0.348 -0.191 +12° 41' 48.80" 1.000E-01 0.500 F 0.255 0.255 20.1 R 0.70 -0.14 o 691 0.64 Yes Yes
2003WR21 O C H 2016-12-20.21915 1.000E-05 01:28:29.870 1.500E-01 0.612 F -0.163 0.344 +01° 13' 11.20" 1.000E-01 0.612 F 0.264 0.033 19.6 R 0.70 -0.04 o 691 0.57 Yes Yes
2007WV4 O C H 2016-12-20.22634 1.000E-05 02:48:26.100 1.500E-01 0.500 F -0.348 0.580 +12° 41' 17.30" 1.000E-01 0.500 F 0.255 -0.377 o 691 1.39 Yes No
2003WR21 O C H 2016-12-20.22900 1.000E-05 01:28:29.610 1.500E-01 0.612 F -0.163 0.715 +01° 13' 23.40" 1.000E-01 0.612 F 0.264 0.094 20.6 R 0.70 0.96 o 691 1.18 Yes Yes
2007WV4 O C H 2016-12-20.23619 1.000E-05 02:48:25.150 1.500E-01 0.500 F -0.348 0.759 +12° 40' 48.60" 1.000E-01 0.500 F 0.255 1.828 o 691 3.96 No No
2006WO3 O C H 2016-12-20.24259 1.000E-05 02:54:35.160 1.500E-01 0.500 F -0.371 -0.062 +01° 56' 28.70" 1.000E-01 0.500 F 0.275 -0.189 o 691 0.40 Yes No
2016YM O C H 2016-12-20.24439 1.000E-05 03:35:21.910 1.500E-01 0.500 F -0.256 -0.270 +10° 02' 30.60" 1.000E-01 0.500 F 0.246 -0.102 o 691 0.58 Yes No
2006WO3 O C H 2016-12-20.24875 1.000E-05 02:54:34.300 1.500E-01 0.500 F -0.371 0.033 +01° 56' 10.70" 1.000E-01 0.500 F 0.275 0.484 o 691 0.98 Yes No
2016YM O C H 2016-12-20.25056 1.000E-05 03:35:26.070 1.500E-01 0.500 F -0.256 -0.587 +10° 01' 18.90" 1.000E-01 0.500 F 0.246 0.376 o 691 1.40 Yes No
2006WO3 O C H 2016-12-20.25490 1.000E-05 02:54:33.450 1.500E-01 0.500 F -0.371 0.231 +01° 55' 51.30" 1.000E-01 0.500 F 0.275 -0.279 o 691 0.73 Yes No
2016YM O C H 2016-12-20.25670 1.000E-05 03:35:30.270 1.500E-01 0.500 F -0.256 -0.043 +10° 00' 06.90" 1.000E-01 0.500 F 0.246 0.229 o 691 0.47 Yes No
2010AH30 O C H 2016-12-20.41173 1.000E-05 08:21:14.640 1.500E-01 0.500 F 0.063 0.269 +23° 48' 58.40" 1.000E-01 0.500 F 0.205 0.046 21.4 R 0.70 0.56 o 691 0.56 Yes Yes
2010NT1 O C H 2016-12-20.41469 1.000E-05 08:40:49.370 1.500E-01 0.500 F 0.041 0.141 +14° 43' 43.50" 1.000E-01 0.500 F 0.051 0.766 o 691 1.57 Yes No
2010AH30 O C H 2016-12-20.42013 1.000E-05 08:21:14.260 1.500E-01 0.500 F 0.063 0.501 +23° 49' 11.20" 1.000E-01 0.500 F 0.205 -0.108 21.4 R 0.70 0.56 o 691 1.05 Yes Yes
2010NT1 O C H 2016-12-20.42335 1.000E-05 08:40:48.350 1.500E-01 0.500 F 0.041 -0.365 +14° 43' 23.40" 1.000E-01 0.500 F 0.051 0.013 o 691 0.73 Yes No
2010AH30 O C H 2016-12-20.42890 1.000E-05 08:21:13.830 1.500E-01 0.500 F 0.063 0.289 +23° 49' 24.60" 1.000E-01 0.500 F 0.205 -0.227 21.4 R 0.70 0.56 o 691 0.75 Yes Yes
2010NT1 O C H 2016-12-20.43219 1.000E-05 08:40:47.390 1.500E-01 0.500 F 0.041 0.303 +14° 43' 03.90" 1.000E-01 0.500 F 0.051 0.273 o 691 0.82 Yes No
2010CM44 O C H 2016-12-20.49185 1.000E-05 09:29:34.080 1.500E-01 0.500 F 0.033 -0.630 +26° 16' 10.70" 1.000E-01 0.500 F 0.315 -0.089 o 691 1.28 Yes No
2010CM44 O C H 2016-12-20.49965 1.000E-05 09:29:34.380 1.500E-01 0.500 F 0.033 0.187 +26° 16' 11.60" 1.000E-01 0.500 F 0.315 -0.577 o 691 1.22 Yes No
2010CM44 O C H 2016-12-20.50727 1.000E-05 09:29:34.560 1.500E-01 0.500 F 0.033 -0.539 +26° 16' 12.60" 1.000E-01 0.500 F 0.315 -0.926 o 691 2.15 Yes No
Abhramu O C 2016-12-24.23922 1.000E-05 08:44:09.340 1.500E-01 0.500 F -0.022 -0.439 +16° 30' 01.40" 1.000E-01 0.500 F 0.090 0.323 o 691 1.09 Yes No
2001QE34 O C 2016-12-24.24155 1.000E-05 08:50:42.390 1.500E-01 0.500 F 0.052 -0.832 +15° 30' 18.40" 1.000E-01 0.500 F 0.207 -0.280 o 691 1.76 Yes No
Abhramu O C 2016-12-24.25774 1.000E-05 08:44:08.220 1.500E-01 0.500 F -0.022 -0.373 +16° 30' 01.80" 1.000E-01 0.500 F 0.090 0.116 o 691 0.78 Yes No

[1-200] [201-400] [401-600] [601-800] [801-1000] [1001-1200] [1201-1400] [1401-1600] [1601-1800] [1801-2000] [2001-2200] [2201-2400] [2401-2600] [2601-2800] [2801-3000] [3001-3200] [3201-3400] [3401-3600] [3601-3800] [3801-4000] [4001-4200] [4201-4400] [4401-4600] [4601-4800] [4801-5000] [5001-5200] [5201-5400] [5401-5600] [5601-5800] [5801-6000] [6001-6200] [6201-6400] [6401-6600] [6601-6800] [6801-7000] [7001-7200] [7201-7400] [7401-7600] [7601-7800] [7801-8000] [8001-8200] [8201-8400] [8401-8600] [8601-8800] [8801-9000] [9001-9200] [9201-9400] [9401-9600] [9601-9800] [9801-10000] [10001-10200] [10201-10400] [10401-10600] [10601-10800] [10801-11000] [11001-11200] [11201-11400] [11401-11600] [11601-11800] [11801-12000] [12001-12200] [12201-12400] [12401-12600] [12601-12800] [12801-13000] [13001-13200] [13201-13400] [13401-13600] [13601-13800] [13801-14000] [14001-14200] [14201-14400] [14401-14600] [14601-14800] [14801-15000] [15001-15200] [15201-15400] [15401-15600] [15601-15800] [15801-16000] [16001-16200] [16201-16400] [16401-16600] [16601-16800] [16801-17000] [17001-17200] [17201-17400] [17401-17600] [17601-17800] [17801-18000] [18001-18200] [18201-18400] [18401-18600] [18601-18800] [18801-19000] [19001-19200] [19201-19400] [19401-19600] [19601-19800] [19801-20000] [20001-20200] [20201-20400] [20401-20600] [20601-20800] [20801-21000] [21001-21200] [21201-21400] [21401-21600] [21601-21800] [21801-22000] [22001-22200] [22201-22400] [22401-22600] [22601-22800] [22801-23000] [23001-23200] [23201-23400] [23401-23600] [23601-23800] [23801-24000] [24001-24200] [24201-24400] [24401-24600] [24601-24800] [24801-25000] [25001-25200] [25201-25400] [25401-25600] [25601-25800] [25801-26000] [26001-26200] [26201-26400] [26401-26600] [26601-26800] [26801-27000] [27001-27200] [27201-27400] [27401-27600] [27601-27800] [27801-28000] [28001-28200] [28201-28400] [28401-28600] [28601-28800] [28801-29000] [29001-29200] [29201-29400] [29401-29600] [29601-29800] [29801-30000] [30001-30200] [30201-30400] [30401-30600] [30601-30800] [30801-31000] [31001-31200] [31201-31400] [31401-31600] [31601-31800] [31801-32000] [32001-32200] [32201-32400] [32401-32600] [32601-32800] [32801-33000] [33001-33200] [33201-33400] [33401-33600] [33601-33800] [33801-34000] [34001-34200] [34201-34400] [34401-34600] [34601-34800] [34801-35000] [35001-35200] [35201-35400] [35401-35600] [35601-35800] [35801-36000] [36001-36200] [36201-36400] [36401-36600] [36601-36800] [36801-37000] [37001-37200] [37201-37400] [37401-37600] [37601-37800] [37801-38000] [38001-38200] [38201-38400] [38401-38600] [38601-38800] [38801-39000] [39001-39200] [39201-39400] [39401-39600] [39601-39800] [39801-40000] [40001-40200] [40201-40400] [40401-40600] [40601-40800] [40801-41000] [41001-41200] [41201-41400] [41401-41600] [41601-41800] [41801-42000] [42001-42200] [42201-42400] [42401-42600] [42601-42800] [42801-43000] [43001-43200] [43201-43400] [43401-43600] [43601-43800] [43801-44000] [44001-44200] [44201-44400] [44401-44600] [44601-44800] [44801-45000] [45001-45200] [45201-45400] [45401-45600] [45601-45800] [45801-46000] [46001-46200] [46201-46400] [46401-46600] [46601-46800] [46801-47000] [47001-47200] [47201-47400] [47401-47600] [47601-47800] [47801-48000] [48001-48200] [48201-48400] [48401-48600] [48601-48800] [48801-49000] [49001-49200] [49201-49400] [49401-49600] [49601-49800] [49801-50000] [50001-50200] [50201-50388]